sensor_id;sensor_type;location;lat;lon;timestamp;P1;durP1;ratioP1;P2;durP2;ratioP2
46505;SDS011;32220;49.808;9.968;2022-09-02T00:01:41;0.97;;;0.87;;
46505;SDS011;32220;49.808;9.968;2022-09-02T00:04:12;2.10;;;1.10;;
46505;SDS011;32220;49.808;9.968;2022-09-02T00:06:42;1.20;;;1.10;;
46505;SDS011;32220;49.808;9.968;2022-09-02T00:09:12;0.97;;;0.97;;
46505;SDS011;32220;49.808;9.968;2022-09-02T00:11:43;1.10;;;1.00;;
46505;SDS011;32220;49.808;9.968;2022-09-02T00:14:15;0.90;;;0.90;;
46505;SDS011;32220;49.808;9.968;2022-09-02T00:16:46;1.13;;;1.07;;
46505;SDS011;32220;49.808;9.968;2022-09-02T00:19:16;0.90;;;0.90;;
46505;SDS011;32220;49.808;9.968;2022-09-02T00:21:45;2.20;;;1.10;;
46505;SDS011;32220;49.808;9.968;2022-09-02T00:24:12;1.30;;;1.20;;
46505;SDS011;32220;49.808;9.968;2022-09-02T00:26:40;1.30;;;1.00;;
46505;SDS011;32220;49.808;9.968;2022-09-02T00:29:09;1.30;;;1.20;;
46505;SDS011;32220;49.808;9.968;2022-09-02T00:31:39;1.50;;;1.17;;
46505;SDS011;32220;49.808;9.968;2022-09-02T00:34:08;1.47;;;1.10;;
46505;SDS011;32220;49.808;9.968;2022-09-02T00:36:36;1.10;;;1.00;;
46505;SDS011;32220;49.808;9.968;2022-09-02T00:39:06;1.10;;;1.00;;
46505;SDS011;32220;49.808;9.968;2022-09-02T00:41:34;0.93;;;0.87;;
46505;SDS011;32220;49.808;9.968;2022-09-02T00:44:08;1.33;;;1.00;;
46505;SDS011;32220;49.808;9.968;2022-09-02T00:46:39;1.73;;;1.17;;
46505;SDS011;32220;49.808;9.968;2022-09-02T00:49:08;1.10;;;1.00;;
46505;SDS011;32220;49.808;9.968;2022-09-02T00:51:40;1.27;;;1.03;;
46505;SDS011;32220;49.808;9.968;2022-09-02T00:54:13;1.57;;;0.90;;
46505;SDS011;32220;49.808;9.968;2022-09-02T00:56:43;1.30;;;1.20;;
46505;SDS011;32220;49.808;9.968;2022-09-02T00:59:14;2.17;;;1.37;;
46505;SDS011;32220;49.808;9.968;2022-09-02T01:01:50;1.40;;;1.10;;
46505;SDS011;32220;49.808;9.968;2022-09-02T01:04:17;1.60;;;1.40;;
46505;SDS011;32220;49.808;9.968;2022-09-02T01:06:45;4.07;;;1.17;;
46505;SDS011;32220;49.808;9.968;2022-09-02T01:09:13;1.33;;;1.00;;
46505;SDS011;32220;49.808;9.968;2022-09-02T01:11:44;1.23;;;1.13;;
46505;SDS011;32220;49.808;9.968;2022-09-02T01:14:14;1.50;;;1.30;;
46505;SDS011;32220;49.808;9.968;2022-09-02T01:16:44;1.43;;;1.27;;
46505;SDS011;32220;49.808;9.968;2022-09-02T01:19:19;1.07;;;1.07;;
46505;SDS011;32220;49.808;9.968;2022-09-02T01:21:51;1.47;;;1.27;;
46505;SDS011;32220;49.808;9.968;2022-09-02T01:24:22;1.10;;;1.00;;
46505;SDS011;32220;49.808;9.968;2022-09-02T01:26:52;1.40;;;1.30;;
46505;SDS011;32220;49.808;9.968;2022-09-02T01:29:22;1.20;;;1.10;;
46505;SDS011;32220;49.808;9.968;2022-09-02T01:31:51;1.57;;;1.10;;
46505;SDS011;32220;49.808;9.968;2022-09-02T01:34:19;1.27;;;1.17;;
46505;SDS011;32220;49.808;9.968;2022-09-02T01:36:46;1.07;;;1.03;;
46505;SDS011;32220;49.808;9.968;2022-09-02T01:39:16;1.50;;;1.40;;
46505;SDS011;32220;49.808;9.968;2022-09-02T01:41:44;2.10;;;0.80;;
46505;SDS011;32220;49.808;9.968;2022-09-02T01:44:11;1.83;;;1.10;;
46505;SDS011;32220;49.808;9.968;2022-09-02T01:46:41;1.23;;;0.90;;
46505;SDS011;32220;49.808;9.968;2022-09-02T01:49:09;1.10;;;1.00;;
46505;SDS011;32220;49.808;9.968;2022-09-02T01:51:38;0.80;;;0.80;;
46505;SDS011;32220;49.808;9.968;2022-09-02T01:54:07;0.83;;;0.80;;
46505;SDS011;32220;49.808;9.968;2022-09-02T01:56:36;1.10;;;1.00;;
46505;SDS011;32220;49.808;9.968;2022-09-02T01:59:04;1.17;;;1.07;;
46505;SDS011;32220;49.808;9.968;2022-09-02T02:01:33;0.93;;;0.83;;
46505;SDS011;32220;49.808;9.968;2022-09-02T02:04:01;1.00;;;0.90;;
46505;SDS011;32220;49.808;9.968;2022-09-02T02:06:29;1.03;;;0.90;;
46505;SDS011;32220;49.808;9.968;2022-09-02T02:08:57;1.20;;;1.10;;
46505;SDS011;32220;49.808;9.968;2022-09-02T02:11:26;1.30;;;1.20;;
46505;SDS011;32220;49.808;9.968;2022-09-02T02:13:59;1.10;;;1.00;;
46505;SDS011;32220;49.808;9.968;2022-09-02T02:16:27;1.53;;;1.00;;
46505;SDS011;32220;49.808;9.968;2022-09-02T02:18:55;1.27;;;1.17;;
46505;SDS011;32220;49.808;9.968;2022-09-02T02:21:23;1.23;;;1.10;;
46505;SDS011;32220;49.808;9.968;2022-09-02T02:23:51;2.10;;;1.10;;
46505;SDS011;32220;49.808;9.968;2022-09-02T02:26:19;1.00;;;1.00;;
46505;SDS011;32220;49.808;9.968;2022-09-02T02:28:47;1.53;;;1.40;;
46505;SDS011;32220;49.808;9.968;2022-09-02T02:31:17;1.00;;;1.00;;
46505;SDS011;32220;49.808;9.968;2022-09-02T02:33:45;1.23;;;1.13;;
46505;SDS011;32220;49.808;9.968;2022-09-02T02:36:13;1.17;;;1.03;;
46505;SDS011;32220;49.808;9.968;2022-09-02T02:38:41;1.63;;;1.27;;
46505;SDS011;32220;49.808;9.968;2022-09-02T02:41:11;1.17;;;1.00;;
46505;SDS011;32220;49.808;9.968;2022-09-02T02:43:40;1.50;;;1.23;;
46505;SDS011;32220;49.808;9.968;2022-09-02T02:46:09;1.20;;;1.10;;
46505;SDS011;32220;49.808;9.968;2022-09-02T02:48:40;4.73;;;2.23;;
46505;SDS011;32220;49.808;9.968;2022-09-02T02:51:09;1.20;;;1.10;;
46505;SDS011;32220;49.808;9.968;2022-09-02T02:53:37;1.80;;;1.47;;
46505;SDS011;32220;49.808;9.968;2022-09-02T02:56:06;2.20;;;1.30;;
46505;SDS011;32220;49.808;9.968;2022-09-02T02:58:34;1.67;;;1.40;;
46505;SDS011;32220;49.808;9.968;2022-09-02T03:01:02;1.20;;;1.10;;
46505;SDS011;32220;49.808;9.968;2022-09-02T03:03:30;2.00;;;1.40;;
46505;SDS011;32220;49.808;9.968;2022-09-02T03:06:01;0.93;;;0.93;;
46505;SDS011;32220;49.808;9.968;2022-09-02T03:08:29;1.30;;;1.20;;
46505;SDS011;32220;49.808;9.968;2022-09-02T03:11:00;1.77;;;1.40;;
46505;SDS011;32220;49.808;9.968;2022-09-02T03:13:30;1.80;;;1.10;;
46505;SDS011;32220;49.808;9.968;2022-09-02T03:16:02;1.60;;;1.17;;
46505;SDS011;32220;49.808;9.968;2022-09-02T03:18:33;1.73;;;1.20;;
46505;SDS011;32220;49.808;9.968;2022-09-02T03:21:04;1.07;;;1.00;;
46505;SDS011;32220;49.808;9.968;2022-09-02T03:23:34;1.23;;;1.13;;
46505;SDS011;32220;49.808;9.968;2022-09-02T03:26:01;1.40;;;1.30;;
46505;SDS011;32220;49.808;9.968;2022-09-02T03:28:37;2.03;;;1.30;;
46505;SDS011;32220;49.808;9.968;2022-09-02T03:31:05;2.03;;;1.50;;
46505;SDS011;32220;49.808;9.968;2022-09-02T03:33:34;1.30;;;1.20;;
46505;SDS011;32220;49.808;9.968;2022-09-02T03:36:04;2.03;;;1.40;;
46505;SDS011;32220;49.808;9.968;2022-09-02T03:38:34;1.50;;;1.40;;
46505;SDS011;32220;49.808;9.968;2022-09-02T03:41:02;1.63;;;1.10;;
46505;SDS011;32220;49.808;9.968;2022-09-02T03:43:30;1.73;;;1.20;;
46505;SDS011;32220;49.808;9.968;2022-09-02T03:45:58;1.20;;;1.10;;
46505;SDS011;32220;49.808;9.968;2022-09-02T03:48:26;1.60;;;1.33;;
46505;SDS011;32220;49.808;9.968;2022-09-02T03:50:55;1.30;;;1.00;;
46505;SDS011;32220;49.808;9.968;2022-09-02T03:53:25;1.33;;;1.23;;
46505;SDS011;32220;49.808;9.968;2022-09-02T03:55:57;1.37;;;1.10;;
46505;SDS011;32220;49.808;9.968;2022-09-02T03:58:27;1.37;;;1.27;;
46505;SDS011;32220;49.808;9.968;2022-09-02T04:00:56;1.40;;;1.23;;
46505;SDS011;32220;49.808;9.968;2022-09-02T04:03:24;2.20;;;1.20;;
46505;SDS011;32220;49.808;9.968;2022-09-02T04:05:52;1.10;;;1.00;;
46505;SDS011;32220;49.808;9.968;2022-09-02T04:08:22;1.43;;;1.10;;
46505;SDS011;32220;49.808;9.968;2022-09-02T04:10:54;1.30;;;1.20;;
46505;SDS011;32220;49.808;9.968;2022-09-02T04:13:22;0.90;;;0.90;;
46505;SDS011;32220;49.808;9.968;2022-09-02T04:15:50;1.50;;;1.07;;
46505;SDS011;32220;49.808;9.968;2022-09-02T04:18:21;1.70;;;1.00;;
46505;SDS011;32220;49.808;9.968;2022-09-02T04:20:50;1.00;;;1.00;;
46505;SDS011;32220;49.808;9.968;2022-09-02T04:23:19;1.30;;;1.17;;
46505;SDS011;32220;49.808;9.968;2022-09-02T04:25:47;1.30;;;1.20;;
46505;SDS011;32220;49.808;9.968;2022-09-02T04:28:17;1.47;;;1.20;;
46505;SDS011;32220;49.808;9.968;2022-09-02T04:30:47;1.90;;;1.60;;
46505;SDS011;32220;49.808;9.968;2022-09-02T04:33:15;1.60;;;1.37;;
46505;SDS011;32220;49.808;9.968;2022-09-02T04:35:46;1.43;;;1.10;;
46505;SDS011;32220;49.808;9.968;2022-09-02T04:38:15;1.30;;;1.20;;
46505;SDS011;32220;49.808;9.968;2022-09-02T04:40:45;1.50;;;1.40;;
46505;SDS011;32220;49.808;9.968;2022-09-02T04:43:17;1.30;;;1.20;;
46505;SDS011;32220;49.808;9.968;2022-09-02T04:45:46;1.40;;;1.30;;
46505;SDS011;32220;49.808;9.968;2022-09-02T04:48:17;1.57;;;1.20;;
46505;SDS011;32220;49.808;9.968;2022-09-02T04:50:47;1.57;;;1.20;;
46505;SDS011;32220;49.808;9.968;2022-09-02T04:53:16;1.30;;;1.20;;
46505;SDS011;32220;49.808;9.968;2022-09-02T04:55:44;2.00;;;1.30;;
46505;SDS011;32220;49.808;9.968;2022-09-02T04:58:13;1.67;;;1.53;;
46505;SDS011;32220;49.808;9.968;2022-09-02T05:00:43;2.70;;;1.60;;
46505;SDS011;32220;49.808;9.968;2022-09-02T05:03:14;1.87;;;1.50;;
46505;SDS011;32220;49.808;9.968;2022-09-02T05:05:44;1.93;;;1.70;;
46505;SDS011;32220;49.808;9.968;2022-09-02T05:08:13;1.93;;;1.73;;
46505;SDS011;32220;49.808;9.968;2022-09-02T05:10:44;1.83;;;1.50;;
46505;SDS011;32220;49.808;9.968;2022-09-02T05:13:16;2.47;;;1.50;;
46505;SDS011;32220;49.808;9.968;2022-09-02T05:15:46;1.60;;;1.50;;
46505;SDS011;32220;49.808;9.968;2022-09-02T05:18:14;1.30;;;1.20;;
46505;SDS011;32220;49.808;9.968;2022-09-02T05:20:44;4.70;;;1.70;;
46505;SDS011;32220;49.808;9.968;2022-09-02T05:23:12;1.63;;;1.53;;
46505;SDS011;32220;49.808;9.968;2022-09-02T05:25:42;1.87;;;1.33;;
46505;SDS011;32220;49.808;9.968;2022-09-02T05:28:10;1.40;;;1.30;;
46505;SDS011;32220;49.808;9.968;2022-09-02T05:30:39;2.30;;;1.70;;
46505;SDS011;32220;49.808;9.968;2022-09-02T05:33:10;2.67;;;1.80;;
46505;SDS011;32220;49.808;9.968;2022-09-02T05:35:39;1.10;;;1.10;;
46505;SDS011;32220;49.808;9.968;2022-09-02T05:38:09;1.17;;;1.17;;
46505;SDS011;32220;49.808;9.968;2022-09-02T05:40:37;1.30;;;1.20;;
46505;SDS011;32220;49.808;9.968;2022-09-02T05:43:08;1.40;;;1.20;;
46505;SDS011;32220;49.808;9.968;2022-09-02T05:45:36;1.27;;;1.17;;
46505;SDS011;32220;49.808;9.968;2022-09-02T05:48:06;1.13;;;1.03;;
46505;SDS011;32220;49.808;9.968;2022-09-02T05:50:57;1.30;;;1.20;;
46505;SDS011;32220;49.808;9.968;2022-09-02T05:53:27;1.87;;;1.30;;
46505;SDS011;32220;49.808;9.968;2022-09-02T05:55:56;1.67;;;1.57;;
46505;SDS011;32220;49.808;9.968;2022-09-02T05:58:24;1.50;;;1.40;;
46505;SDS011;32220;49.808;9.968;2022-09-02T06:00:53;1.40;;;1.30;;
46505;SDS011;32220;49.808;9.968;2022-09-02T06:03:21;1.57;;;1.47;;
46505;SDS011;32220;49.808;9.968;2022-09-02T06:05:53;1.80;;;1.40;;
46505;SDS011;32220;49.808;9.968;2022-09-02T06:08:23;1.47;;;1.30;;
46505;SDS011;32220;49.808;9.968;2022-09-02T06:10:51;1.53;;;1.30;;
46505;SDS011;32220;49.808;9.968;2022-09-02T06:13:21;2.00;;;1.57;;
46505;SDS011;32220;49.808;9.968;2022-09-02T06:15:52;1.77;;;1.67;;
46505;SDS011;32220;49.808;9.968;2022-09-02T06:18:23;1.57;;;1.47;;
46505;SDS011;32220;49.808;9.968;2022-09-02T06:20:53;1.80;;;1.50;;
46505;SDS011;32220;49.808;9.968;2022-09-02T06:23:23;2.00;;;1.80;;
46505;SDS011;32220;49.808;9.968;2022-09-02T06:25:52;1.40;;;1.30;;
46505;SDS011;32220;49.808;9.968;2022-09-02T06:28:19;1.97;;;1.43;;
46505;SDS011;32220;49.808;9.968;2022-09-02T06:30:48;2.30;;;1.87;;
46505;SDS011;32220;49.808;9.968;2022-09-02T06:33:20;2.17;;;1.90;;
46505;SDS011;32220;49.808;9.968;2022-09-02T06:35:48;3.60;;;1.70;;
46505;SDS011;32220;49.808;9.968;2022-09-02T06:38:17;2.43;;;1.37;;
46505;SDS011;32220;49.808;9.968;2022-09-02T06:40:49;4.47;;;1.70;;
46505;SDS011;32220;49.808;9.968;2022-09-02T06:43:26;1.83;;;1.20;;
46505;SDS011;32220;49.808;9.968;2022-09-02T06:46:13;3.07;;;1.50;;
46505;SDS011;32220;49.808;9.968;2022-09-02T06:48:44;2.90;;;1.00;;
46505;SDS011;32220;49.808;9.968;2022-09-02T06:51:17;1.23;;;1.13;;
46505;SDS011;32220;49.808;9.968;2022-09-02T06:53:48;2.10;;;1.83;;
46505;SDS011;32220;49.808;9.968;2022-09-02T06:56:18;1.40;;;1.30;;
46505;SDS011;32220;49.808;9.968;2022-09-02T06:58:46;1.30;;;1.10;;
46505;SDS011;32220;49.808;9.968;2022-09-02T07:01:17;1.37;;;1.27;;
46505;SDS011;32220;49.808;9.968;2022-09-02T07:03:46;1.40;;;1.17;;
46505;SDS011;32220;49.808;9.968;2022-09-02T07:06:32;1.93;;;1.30;;
46505;SDS011;32220;49.808;9.968;2022-09-02T07:09:03;1.20;;;1.10;;
46505;SDS011;32220;49.808;9.968;2022-09-02T07:11:35;1.30;;;1.20;;
46505;SDS011;32220;49.808;9.968;2022-09-02T07:14:04;1.30;;;1.20;;
46505;SDS011;32220;49.808;9.968;2022-09-02T07:16:35;2.10;;;1.40;;
46505;SDS011;32220;49.808;9.968;2022-09-02T07:19:08;2.03;;;1.60;;
46505;SDS011;32220;49.808;9.968;2022-09-02T07:21:37;2.50;;;1.27;;
46505;SDS011;32220;49.808;9.968;2022-09-02T07:24:06;1.97;;;1.33;;
46505;SDS011;32220;49.808;9.968;2022-09-02T07:26:35;2.37;;;1.10;;
46505;SDS011;32220;49.808;9.968;2022-09-02T07:29:05;1.17;;;0.90;;
46505;SDS011;32220;49.808;9.968;2022-09-02T07:31:34;0.97;;;0.93;;
46505;SDS011;32220;49.808;9.968;2022-09-02T07:34:04;1.07;;;1.03;;
46505;SDS011;32220;49.808;9.968;2022-09-02T07:36:32;1.50;;;1.13;;
46505;SDS011;32220;49.808;9.968;2022-09-02T07:39:03;1.13;;;1.03;;
46505;SDS011;32220;49.808;9.968;2022-09-02T07:41:32;1.00;;;0.90;;
46505;SDS011;32220;49.808;9.968;2022-09-02T07:44:03;0.77;;;0.77;;
46505;SDS011;32220;49.808;9.968;2022-09-02T07:46:32;0.90;;;0.90;;
46505;SDS011;32220;49.808;9.968;2022-09-02T07:49:02;1.20;;;1.10;;
46505;SDS011;32220;49.808;9.968;2022-09-02T07:51:33;1.30;;;1.10;;
46505;SDS011;32220;49.808;9.968;2022-09-02T07:54:03;1.20;;;1.03;;
46505;SDS011;32220;49.808;9.968;2022-09-02T07:56:32;2.97;;;1.10;;
46505;SDS011;32220;49.808;9.968;2022-09-02T07:59:02;1.60;;;1.00;;
46505;SDS011;32220;49.808;9.968;2022-09-02T08:01:31;5.20;;;1.30;;
46505;SDS011;32220;49.808;9.968;2022-09-02T08:04:00;2.17;;;0.97;;
46505;SDS011;32220;49.808;9.968;2022-09-02T08:06:31;8.07;;;2.40;;
46505;SDS011;32220;49.808;9.968;2022-09-02T08:08:59;2.47;;;1.30;;
46505;SDS011;32220;49.808;9.968;2022-09-02T08:11:27;4.80;;;1.10;;
46505;SDS011;32220;49.808;9.968;2022-09-02T08:13:54;3.13;;;1.47;;
46505;SDS011;32220;49.808;9.968;2022-09-02T08:16:24;3.13;;;1.03;;
46505;SDS011;32220;49.808;9.968;2022-09-02T08:18:52;1.90;;;0.90;;
46505;SDS011;32220;49.808;9.968;2022-09-02T08:21:20;1.00;;;0.90;;
46505;SDS011;32220;49.808;9.968;2022-09-02T08:23:47;1.20;;;1.10;;
46505;SDS011;32220;49.808;9.968;2022-09-02T08:26:16;1.80;;;1.30;;
46505;SDS011;32220;49.808;9.968;2022-09-02T08:28:44;1.30;;;1.20;;
46505;SDS011;32220;49.808;9.968;2022-09-02T08:31:11;3.00;;;1.60;;
46505;SDS011;32220;49.808;9.968;2022-09-02T08:33:41;1.23;;;1.17;;
46505;SDS011;32220;49.808;9.968;2022-09-02T08:36:09;2.00;;;1.20;;
46505;SDS011;32220;49.808;9.968;2022-09-02T08:38:39;3.30;;;1.50;;
46505;SDS011;32220;49.808;9.968;2022-09-02T08:41:11;1.00;;;1.00;;
46505;SDS011;32220;49.808;9.968;2022-09-02T08:43:46;4.23;;;1.10;;
46505;SDS011;32220;49.808;9.968;2022-09-02T08:46:16;1.77;;;1.00;;
46505;SDS011;32220;49.808;9.968;2022-09-02T08:48:47;1.02;;;0.93;;
46505;SDS011;32220;49.808;9.968;2022-09-02T08:51:19;1.80;;;1.00;;
46505;SDS011;32220;49.808;9.968;2022-09-02T08:53:53;1.15;;;1.05;;
46505;SDS011;32220;49.808;9.968;2022-09-02T08:56:25;2.28;;;1.20;;
46505;SDS011;32220;49.808;9.968;2022-09-02T08:58:53;2.35;;;1.10;;
46505;SDS011;32220;49.808;9.968;2022-09-02T09:01:24;1.20;;;1.10;;
46505;SDS011;32220;49.808;9.968;2022-09-02T09:04:02;3.00;;;1.20;;
46505;SDS011;32220;49.808;9.968;2022-09-02T09:06:39;1.02;;;1.00;;
46505;SDS011;32220;49.808;9.968;2022-09-02T09:09:15;3.55;;;1.25;;
46505;SDS011;32220;49.808;9.968;2022-09-02T09:11:54;1.30;;;1.20;;
46505;SDS011;32220;49.808;9.968;2022-09-02T09:14:29;2.92;;;1.10;;
46505;SDS011;32220;49.808;9.968;2022-09-02T09:17:01;3.67;;;1.10;;
46505;SDS011;32220;49.808;9.968;2022-09-02T09:19:45;2.00;;;1.13;;
46505;SDS011;32220;49.808;9.968;2022-09-02T09:22:17;1.07;;;0.83;;
46505;SDS011;32220;49.808;9.968;2022-09-02T09:24:47;1.13;;;0.90;;
46505;SDS011;32220;49.808;9.968;2022-09-02T09:27:16;1.17;;;1.07;;
46505;SDS011;32220;49.808;9.968;2022-09-02T09:29:45;2.03;;;1.10;;
46505;SDS011;32220;49.808;9.968;2022-09-02T09:32:16;1.10;;;0.93;;
46505;SDS011;32220;49.808;9.968;2022-09-02T09:34:55;1.63;;;0.90;;
46505;SDS011;32220;49.808;9.968;2022-09-02T09:37:31;0.80;;;0.80;;
46505;SDS011;32220;49.808;9.968;2022-09-02T09:40:02;0.97;;;0.97;;
46505;SDS011;32220;49.808;9.968;2022-09-02T09:42:48;1.17;;;0.90;;
46505;SDS011;32220;49.808;9.968;2022-09-02T09:45:25;2.07;;;1.00;;
46505;SDS011;32220;49.808;9.968;2022-09-02T09:48:05;1.47;;;1.27;;
46505;SDS011;32220;49.808;9.968;2022-09-02T09:50:40;2.00;;;1.20;;
46505;SDS011;32220;49.808;9.968;2022-09-02T09:53:16;2.00;;;0.97;;
46505;SDS011;32220;49.808;9.968;2022-09-02T09:55:49;1.40;;;1.13;;
46505;SDS011;32220;49.808;9.968;2022-09-02T09:58:19;0.90;;;0.90;;
46505;SDS011;32220;49.808;9.968;2022-09-02T10:00:50;1.03;;;1.00;;
46505;SDS011;32220;49.808;9.968;2022-09-02T10:03:26;1.20;;;1.00;;
46505;SDS011;32220;49.808;9.968;2022-09-02T10:05:57;1.17;;;1.00;;
46505;SDS011;32220;49.808;9.968;2022-09-02T10:08:48;1.33;;;0.90;;
46505;SDS011;32220;49.808;9.968;2022-09-02T10:11:23;1.30;;;0.93;;
46505;SDS011;32220;49.808;9.968;2022-09-02T10:13:52;1.33;;;0.90;;
46505;SDS011;32220;49.808;9.968;2022-09-02T10:16:29;0.73;;;0.63;;
46505;SDS011;32220;49.808;9.968;2022-09-02T10:19:09;2.70;;;1.10;;
46505;SDS011;32220;49.808;9.968;2022-09-02T10:21:52;1.00;;;0.90;;
46505;SDS011;32220;49.808;9.968;2022-09-02T10:24:36;1.47;;;0.83;;
46505;SDS011;32220;49.808;9.968;2022-09-02T10:27:19;1.27;;;0.90;;
46505;SDS011;32220;49.808;9.968;2022-09-02T10:29:56;0.87;;;0.83;;
46505;SDS011;32220;49.808;9.968;2022-09-02T10:32:40;1.13;;;1.00;;
46505;SDS011;32220;49.808;9.968;2022-09-02T10:35:17;1.33;;;1.10;;
46505;SDS011;32220;49.808;9.968;2022-09-02T10:37:58;0.80;;;0.80;;
46505;SDS011;32220;49.808;9.968;2022-09-02T10:40:35;1.47;;;0.90;;
46505;SDS011;32220;49.808;9.968;2022-09-02T10:43:16;0.80;;;0.60;;
46505;SDS011;32220;49.808;9.968;2022-09-02T10:45:53;1.80;;;0.90;;
46505;SDS011;32220;49.808;9.968;2022-09-02T10:48:32;0.90;;;0.80;;
46505;SDS011;32220;49.808;9.968;2022-09-02T10:51:10;1.70;;;0.87;;
46505;SDS011;32220;49.808;9.968;2022-09-02T10:53:52;1.03;;;0.90;;
46505;SDS011;32220;49.808;9.968;2022-09-02T10:56:30;1.00;;;0.90;;
46505;SDS011;32220;49.808;9.968;2022-09-02T10:59:05;0.90;;;0.90;;
46505;SDS011;32220;49.808;9.968;2022-09-02T11:01:37;1.07;;;0.97;;
46505;SDS011;32220;49.808;9.968;2022-09-02T11:04:12;1.10;;;1.00;;
46505;SDS011;32220;49.808;9.968;2022-09-02T11:06:45;1.10;;;0.87;;
46505;SDS011;32220;49.808;9.968;2022-09-02T11:09:28;1.87;;;1.00;;
46505;SDS011;32220;49.808;9.968;2022-09-02T11:12:01;0.90;;;0.90;;
46505;SDS011;32220;49.808;9.968;2022-09-02T11:14:34;0.60;;;0.60;;
46505;SDS011;32220;49.808;9.968;2022-09-02T11:17:13;1.10;;;1.00;;
46505;SDS011;32220;49.808;9.968;2022-09-02T11:19:50;0.80;;;0.80;;
46505;SDS011;32220;49.808;9.968;2022-09-02T11:22:23;0.80;;;0.80;;
46505;SDS011;32220;49.808;9.968;2022-09-02T11:25:02;0.90;;;0.75;;
46505;SDS011;32220;49.808;9.968;2022-09-02T11:27:36;0.85;;;0.70;;
46505;SDS011;32220;49.808;9.968;2022-09-02T11:30:10;1.20;;;0.70;;
46505;SDS011;32220;49.808;9.968;2022-09-02T11:32:41;0.68;;;0.68;;
46505;SDS011;32220;49.808;9.968;2022-09-02T11:35:13;0.95;;;0.90;;
46505;SDS011;32220;49.808;9.968;2022-09-02T11:37:45;1.02;;;0.80;;
46505;SDS011;32220;49.808;9.968;2022-09-02T11:40:19;0.70;;;0.70;;
46505;SDS011;32220;49.808;9.968;2022-09-02T11:43:03;1.08;;;0.80;;
46505;SDS011;32220;49.808;9.968;2022-09-02T11:49:05;1.33;;;0.70;;
46505;SDS011;32220;49.808;9.968;2022-09-02T11:51:50;0.70;;;0.70;;
46505;SDS011;32220;49.808;9.968;2022-09-02T11:54:27;1.20;;;0.70;;
46505;SDS011;32220;49.808;9.968;2022-09-02T11:57:03;2.15;;;0.73;;
46505;SDS011;32220;49.808;9.968;2022-09-02T12:02:39;0.70;;;0.70;;
46505;SDS011;32220;49.808;9.968;2022-09-02T12:11:48;1.05;;;0.88;;
46505;SDS011;32220;49.808;9.968;2022-09-02T12:17:39;0.98;;;0.75;;
46505;SDS011;32220;49.808;9.968;2022-09-02T12:29:51;2.45;;;0.80;;
46505;SDS011;32220;49.808;9.968;2022-09-02T12:35:48;0.63;;;0.63;;
46505;SDS011;32220;49.808;9.968;2022-09-02T12:38:26;0.60;;;0.60;;
46505;SDS011;32220;49.808;9.968;2022-09-02T12:43:51;0.60;;;0.60;;
46505;SDS011;32220;49.808;9.968;2022-09-02T12:46:34;0.70;;;0.70;;
46505;SDS011;32220;49.808;9.968;2022-09-02T12:49:20;0.80;;;0.80;;
46505;SDS011;32220;49.808;9.968;2022-09-02T12:51:57;0.80;;;0.80;;
46505;SDS011;32220;49.808;9.968;2022-09-02T12:54:31;1.10;;;0.70;;
46505;SDS011;32220;49.808;9.968;2022-09-02T12:57:03;1.00;;;0.80;;
46505;SDS011;32220;49.808;9.968;2022-09-02T12:59:32;1.70;;;0.80;;
46505;SDS011;32220;49.808;9.968;2022-09-02T13:02:13;1.08;;;0.73;;
46505;SDS011;32220;49.808;9.968;2022-09-02T13:04:55;1.75;;;0.85;;
46505;SDS011;32220;49.808;9.968;2022-09-02T13:10:55;0.88;;;0.70;;
46505;SDS011;32220;49.808;9.968;2022-09-02T13:17:10;0.88;;;0.80;;
46505;SDS011;32220;49.808;9.968;2022-09-02T13:19:56;0.75;;;0.70;;
46505;SDS011;32220;49.808;9.968;2022-09-02T13:22:52;0.85;;;0.75;;
46505;SDS011;32220;49.808;9.968;2022-09-02T13:28:49;1.00;;;0.82;;
46505;SDS011;32220;49.808;9.968;2022-09-02T13:31:30;0.73;;;0.73;;
46505;SDS011;32220;49.808;9.968;2022-09-02T13:33:58;0.82;;;0.82;;
46505;SDS011;32220;49.808;9.968;2022-09-02T13:36:27;0.88;;;0.88;;
46505;SDS011;32220;49.808;9.968;2022-09-02T13:39:08;0.90;;;0.82;;
46505;SDS011;32220;49.808;9.968;2022-09-02T13:41:40;1.05;;;0.80;;
46505;SDS011;32220;49.808;9.968;2022-09-02T13:44:08;0.60;;;0.60;;
46505;SDS011;32220;49.808;9.968;2022-09-02T13:46:44;0.88;;;0.80;;
46505;SDS011;32220;49.808;9.968;2022-09-02T13:49:17;0.68;;;0.68;;
46505;SDS011;32220;49.808;9.968;2022-09-02T13:51:47;0.82;;;0.82;;
46505;SDS011;32220;49.808;9.968;2022-09-02T13:54:22;2.00;;;0.85;;
46505;SDS011;32220;49.808;9.968;2022-09-02T13:57:00;0.93;;;0.82;;
46505;SDS011;32220;49.808;9.968;2022-09-02T13:59:34;0.77;;;0.77;;
46505;SDS011;32220;49.808;9.968;2022-09-02T14:02:20;2.40;;;0.85;;
46505;SDS011;32220;49.808;9.968;2022-09-02T14:04:55;0.90;;;0.90;;
46505;SDS011;32220;49.808;9.968;2022-09-02T14:07:26;1.02;;;0.90;;
46505;SDS011;32220;49.808;9.968;2022-09-02T14:09:58;2.25;;;0.70;;
46505;SDS011;32220;49.808;9.968;2022-09-02T14:12:32;1.38;;;1.00;;
46505;SDS011;32220;49.808;9.968;2022-09-02T14:15:04;2.08;;;0.80;;
46505;SDS011;32220;49.808;9.968;2022-09-02T14:17:33;0.90;;;0.90;;
46505;SDS011;32220;49.808;9.968;2022-09-02T14:20:16;0.80;;;0.80;;
46505;SDS011;32220;49.808;9.968;2022-09-02T14:22:50;2.40;;;0.88;;
46505;SDS011;32220;49.808;9.968;2022-09-02T14:25:19;0.90;;;0.85;;
46505;SDS011;32220;49.808;9.968;2022-09-02T14:27:50;0.80;;;0.80;;
46505;SDS011;32220;49.808;9.968;2022-09-02T14:30:23;1.07;;;0.97;;
46505;SDS011;32220;49.808;9.968;2022-09-02T14:33:14;0.90;;;0.90;;
46505;SDS011;32220;49.808;9.968;2022-09-02T14:35:53;1.00;;;0.80;;
46505;SDS011;32220;49.808;9.968;2022-09-02T14:38:26;1.83;;;0.90;;
46505;SDS011;32220;49.808;9.968;2022-09-02T14:40:59;1.00;;;0.90;;
46505;SDS011;32220;49.808;9.968;2022-09-02T14:43:32;1.00;;;0.90;;
46505;SDS011;32220;49.808;9.968;2022-09-02T14:46:07;1.00;;;1.00;;
46505;SDS011;32220;49.808;9.968;2022-09-02T14:48:51;1.30;;;1.20;;
46505;SDS011;32220;49.808;9.968;2022-09-02T14:51:22;3.63;;;1.10;;
46505;SDS011;32220;49.808;9.968;2022-09-02T14:53:53;2.67;;;1.13;;
46505;SDS011;32220;49.808;9.968;2022-09-02T14:59:15;0.63;;;0.63;;
46505;SDS011;32220;49.808;9.968;2022-09-02T15:01:44;0.80;;;0.80;;
46505;SDS011;32220;49.808;9.968;2022-09-02T15:04:15;1.43;;;0.93;;
46505;SDS011;32220;49.808;9.968;2022-09-02T15:06:44;1.60;;;1.00;;
46505;SDS011;32220;49.808;9.968;2022-09-02T15:09:12;3.40;;;0.87;;
46505;SDS011;32220;49.808;9.968;2022-09-02T15:11:42;1.43;;;1.00;;
46505;SDS011;32220;49.808;9.968;2022-09-02T15:14:11;1.90;;;0.80;;
46505;SDS011;32220;49.808;9.968;2022-09-02T15:16:41;1.50;;;0.90;;
46505;SDS011;32220;49.808;9.968;2022-09-02T15:19:09;0.97;;;0.80;;
46505;SDS011;32220;49.808;9.968;2022-09-02T15:21:37;1.00;;;0.90;;
46505;SDS011;32220;49.808;9.968;2022-09-02T15:24:05;1.27;;;0.80;;
46505;SDS011;32220;49.808;9.968;2022-09-02T15:26:33;1.17;;;0.77;;
46505;SDS011;32220;49.808;9.968;2022-09-02T15:29:01;1.30;;;0.80;;
46505;SDS011;32220;49.808;9.968;2022-09-02T15:31:29;1.47;;;1.00;;
46505;SDS011;32220;49.808;9.968;2022-09-02T15:33:59;0.60;;;0.60;;
46505;SDS011;32220;49.808;9.968;2022-09-02T15:36:27;1.53;;;0.63;;
46505;SDS011;32220;49.808;9.968;2022-09-02T15:38:56;1.27;;;0.80;;
46505;SDS011;32220;49.808;9.968;2022-09-02T15:41:25;1.67;;;0.90;;
46505;SDS011;32220;49.808;9.968;2022-09-02T15:43:56;1.47;;;1.00;;
46505;SDS011;32220;49.808;9.968;2022-09-02T15:46:26;0.87;;;0.73;;
46505;SDS011;32220;49.808;9.968;2022-09-02T15:48:55;1.00;;;0.77;;
46505;SDS011;32220;49.808;9.968;2022-09-02T15:51:29;1.70;;;0.87;;
46505;SDS011;32220;49.808;9.968;2022-09-02T15:53:58;0.60;;;0.60;;
46505;SDS011;32220;49.808;9.968;2022-09-02T15:56:27;1.13;;;0.87;;
46505;SDS011;32220;49.808;9.968;2022-09-02T15:58:58;0.70;;;0.70;;
46505;SDS011;32220;49.808;9.968;2022-09-02T16:01:27;2.13;;;0.70;;